sensor_id;sensor_type;location;lat;lon;timestamp;temperature;humidity
14614;DHT22;7393;51.446;6.800;2023-03-30T00:01:34;13.80;99.90
14614;DHT22;7393;51.446;6.800;2023-03-30T00:04:01;13.80;99.90
14614;DHT22;7393;51.446;6.800;2023-03-30T00:06:29;13.80;99.90
14614;DHT22;7393;51.446;6.800;2023-03-30T00:08:57;13.80;99.90
14614;DHT22;7393;51.446;6.800;2023-03-30T00:11:25;13.80;99.90
14614;DHT22;7393;51.446;6.800;2023-03-30T00:13:52;13.80;99.90
14614;DHT22;7393;51.446;6.800;2023-03-30T00:16:19;13.90;99.90
14614;DHT22;7393;51.446;6.800;2023-03-30T00:18:46;13.90;99.90
14614;DHT22;7393;51.446;6.800;2023-03-30T00:21:13;14.00;99.90
14614;DHT22;7393;51.446;6.800;2023-03-30T00:23:43;14.00;99.90
14614;DHT22;7393;51.446;6.800;2023-03-30T00:26:12;14.00;99.90
14614;DHT22;7393;51.446;6.800;2023-03-30T00:28:39;14.00;99.90
14614;DHT22;7393;51.446;6.800;2023-03-30T00:31:06;13.90;99.90
14614;DHT22;7393;51.446;6.800;2023-03-30T00:33:35;14.00;99.90
14614;DHT22;7393;51.446;6.800;2023-03-30T00:36:02;14.00;99.90
14614;DHT22;7393;51.446;6.800;2023-03-30T00:38:28;13.90;99.90
14614;DHT22;7393;51.446;6.800;2023-03-30T00:40:58;13.90;99.90
14614;DHT22;7393;51.446;6.800;2023-03-30T00:43:26;13.90;99.90
14614;DHT22;7393;51.446;6.800;2023-03-30T00:45:55;13.90;99.90
14614;DHT22;7393;51.446;6.800;2023-03-30T00:48:23;13.90;99.90
14614;DHT22;7393;51.446;6.800;2023-03-30T00:50:53;13.90;99.90
14614;DHT22;7393;51.446;6.800;2023-03-30T00:53:24;13.90;99.90
14614;DHT22;7393;51.446;6.800;2023-03-30T00:55:52;13.80;99.90
14614;DHT22;7393;51.446;6.800;2023-03-30T00:58:21;13.80;99.90
14614;DHT22;7393;51.446;6.800;2023-03-30T01:00:50;13.80;99.90
14614;DHT22;7393;51.446;6.800;2023-03-30T01:03:20;13.80;99.90
14614;DHT22;7393;51.446;6.800;2023-03-30T01:05:47;13.80;99.90
14614;DHT22;7393;51.446;6.800;2023-03-30T01:08:15;13.80;99.90
14614;DHT22;7393;51.446;6.800;2023-03-30T01:10:43;13.80;99.90
14614;DHT22;7393;51.446;6.800;2023-03-30T01:13:10;13.70;99.90
14614;DHT22;7393;51.446;6.800;2023-03-30T01:15:46;13.70;99.90
14614;DHT22;7393;51.446;6.800;2023-03-30T01:18:23;13.70;99.90
14614;DHT22;7393;51.446;6.800;2023-03-30T01:24:19;13.70;99.90
14614;DHT22;7393;51.446;6.800;2023-03-30T01:26:52;13.80;99.90
14614;DHT22;7393;51.446;6.800;2023-03-30T01:29:30;13.80;99.90
14614;DHT22;7393;51.446;6.800;2023-03-30T01:38:23;13.70;99.90
14614;DHT22;7393;51.446;6.800;2023-03-30T01:40:58;13.70;99.90
14614;DHT22;7393;51.446;6.800;2023-03-30T01:43:34;13.70;99.90
14614;DHT22;7393;51.446;6.800;2023-03-30T01:46:07;13.70;99.90
14614;DHT22;7393;51.446;6.800;2023-03-30T01:48:40;13.70;99.90
14614;DHT22;7393;51.446;6.800;2023-03-30T01:51:13;13.70;99.90
14614;DHT22;7393;51.446;6.800;2023-03-30T01:53:46;13.80;99.90
14614;DHT22;7393;51.446;6.800;2023-03-30T01:56:19;13.70;99.90
14614;DHT22;7393;51.446;6.800;2023-03-30T01:58:52;13.80;99.90
14614;DHT22;7393;51.446;6.800;2023-03-30T02:01:19;13.80;99.90
14614;DHT22;7393;51.446;6.800;2023-03-30T02:03:48;13.90;99.90
14614;DHT22;7393;51.446;6.800;2023-03-30T02:06:18;13.90;99.90
14614;DHT22;7393;51.446;6.800;2023-03-30T02:08:48;14.00;99.90
14614;DHT22;7393;51.446;6.800;2023-03-30T02:11:15;14.00;99.90
14614;DHT22;7393;51.446;6.800;2023-03-30T02:13:44;13.90;99.90
14614;DHT22;7393;51.446;6.800;2023-03-30T02:16:14;14.00;99.90
14614;DHT22;7393;51.446;6.800;2023-03-30T02:18:41;14.00;99.90
14614;DHT22;7393;51.446;6.800;2023-03-30T02:21:09;14.00;99.90
14614;DHT22;7393;51.446;6.800;2023-03-30T02:23:39;14.00;99.90
14614;DHT22;7393;51.446;6.800;2023-03-30T02:26:11;14.10;99.90
14614;DHT22;7393;51.446;6.800;2023-03-30T02:28:38;14.10;99.90
14614;DHT22;7393;51.446;6.800;2023-03-30T02:31:11;14.10;99.90
14614;DHT22;7393;51.446;6.800;2023-03-30T02:33:52;14.10;99.90
14614;DHT22;7393;51.446;6.800;2023-03-30T02:36:34;14.10;99.90
14614;DHT22;7393;51.446;6.800;2023-03-30T02:39:12;14.10;99.90
14614;DHT22;7393;51.446;6.800;2023-03-30T02:42:04;14.10;99.90
14614;DHT22;7393;51.446;6.800;2023-03-30T02:44:39;14.10;99.90
14614;DHT22;7393;51.446;6.800;2023-03-30T02:47:12;14.10;99.90
14614;DHT22;7393;51.446;6.800;2023-03-30T02:49:52;14.10;99.90
14614;DHT22;7393;51.446;6.800;2023-03-30T02:52:26;14.20;99.90
14614;DHT22;7393;51.446;6.800;2023-03-30T02:55:10;14.20;99.90
14614;DHT22;7393;51.446;6.800;2023-03-30T02:57:45;14.20;99.90
14614;DHT22;7393;51.446;6.800;2023-03-30T03:00:22;14.20;99.90
14614;DHT22;7393;51.446;6.800;2023-03-30T03:02:54;14.20;99.90
14614;DHT22;7393;51.446;6.800;2023-03-30T03:05:23;14.20;99.90
14614;DHT22;7393;51.446;6.800;2023-03-30T03:07:51;14.10;99.90
14614;DHT22;7393;51.446;6.800;2023-03-30T03:10:18;14.10;99.90
14614;DHT22;7393;51.446;6.800;2023-03-30T03:12:45;14.10;99.90
14614;DHT22;7393;51.446;6.800;2023-03-30T03:15:12;14.10;99.90
14614;DHT22;7393;51.446;6.800;2023-03-30T03:17:40;14.10;99.90
14614;DHT22;7393;51.446;6.800;2023-03-30T03:20:11;14.10;99.90
14614;DHT22;7393;51.446;6.800;2023-03-30T03:22:38;14.20;99.90
14614;DHT22;7393;51.446;6.800;2023-03-30T03:25:05;14.10;99.90
14614;DHT22;7393;51.446;6.800;2023-03-30T03:27:33;14.00;99.90
14614;DHT22;7393;51.446;6.800;2023-03-30T03:30:00;14.00;99.90
14614;DHT22;7393;51.446;6.800;2023-03-30T03:32:26;14.00;99.90
14614;DHT22;7393;51.446;6.800;2023-03-30T03:34:53;14.00;99.90
14614;DHT22;7393;51.446;6.800;2023-03-30T03:37:21;14.00;99.90
14614;DHT22;7393;51.446;6.800;2023-03-30T03:39:48;14.10;99.90
14614;DHT22;7393;51.446;6.800;2023-03-30T03:42:15;14.00;99.90
14614;DHT22;7393;51.446;6.800;2023-03-30T03:44:42;14.10;99.90
14614;DHT22;7393;51.446;6.800;2023-03-30T03:47:08;14.00;99.90
14614;DHT22;7393;51.446;6.800;2023-03-30T03:49:37;14.10;99.90
14614;DHT22;7393;51.446;6.800;2023-03-30T03:52:04;14.10;99.90
14614;DHT22;7393;51.446;6.800;2023-03-30T03:54:32;14.20;99.90
14614;DHT22;7393;51.446;6.800;2023-03-30T03:56:59;14.20;99.90
14614;DHT22;7393;51.446;6.800;2023-03-30T03:59:26;14.10;99.90
14614;DHT22;7393;51.446;6.800;2023-03-30T04:01:53;14.20;99.90
14614;DHT22;7393;51.446;6.800;2023-03-30T04:04:20;14.20;99.90
14614;DHT22;7393;51.446;6.800;2023-03-30T04:06:46;14.20;99.90
14614;DHT22;7393;51.446;6.800;2023-03-30T04:09:13;14.20;99.90
14614;DHT22;7393;51.446;6.800;2023-03-30T04:11:41;14.20;99.90
14614;DHT22;7393;51.446;6.800;2023-03-30T04:14:08;14.20;99.90
14614;DHT22;7393;51.446;6.800;2023-03-30T04:16:34;14.20;99.90
14614;DHT22;7393;51.446;6.800;2023-03-30T04:19:01;14.20;99.90
14614;DHT22;7393;51.446;6.800;2023-03-30T04:21:28;14.20;99.90
14614;DHT22;7393;51.446;6.800;2023-03-30T04:23:56;14.30;99.90
14614;DHT22;7393;51.446;6.800;2023-03-30T04:26:23;14.30;99.90
14614;DHT22;7393;51.446;6.800;2023-03-30T04:28:54;14.30;99.90
14614;DHT22;7393;51.446;6.800;2023-03-30T04:31:21;14.30;99.90
14614;DHT22;7393;51.446;6.800;2023-03-30T04:33:48;14.30;99.90
14614;DHT22;7393;51.446;6.800;2023-03-30T04:36:17;14.30;99.90
14614;DHT22;7393;51.446;6.800;2023-03-30T04:38:45;14.40;99.90
14614;DHT22;7393;51.446;6.800;2023-03-30T04:41:23;14.40;99.90
14614;DHT22;7393;51.446;6.800;2023-03-30T04:43:51;14.50;99.90
14614;DHT22;7393;51.446;6.800;2023-03-30T04:46:19;14.50;99.90
14614;DHT22;7393;51.446;6.800;2023-03-30T04:48:46;14.50;99.90
14614;DHT22;7393;51.446;6.800;2023-03-30T04:51:12;14.50;99.90
14614;DHT22;7393;51.446;6.800;2023-03-30T04:53:39;14.50;99.90
14614;DHT22;7393;51.446;6.800;2023-03-30T04:56:06;14.50;99.90
14614;DHT22;7393;51.446;6.800;2023-03-30T04:58:33;14.50;99.90
14614;DHT22;7393;51.446;6.800;2023-03-30T05:01:00;14.50;99.90
14614;DHT22;7393;51.446;6.800;2023-03-30T05:03:29;14.50;99.90
14614;DHT22;7393;51.446;6.800;2023-03-30T05:05:56;14.50;99.90
14614;DHT22;7393;51.446;6.800;2023-03-30T05:08:23;14.50;99.90
14614;DHT22;7393;51.446;6.800;2023-03-30T05:10:49;14.50;99.90
14614;DHT22;7393;51.446;6.800;2023-03-30T05:13:16;14.40;99.90
14614;DHT22;7393;51.446;6.800;2023-03-30T05:15:43;14.50;99.90
14614;DHT22;7393;51.446;6.800;2023-03-30T05:18:10;14.40;99.90
14614;DHT22;7393;51.446;6.800;2023-03-30T05:20:38;14.40;99.90
14614;DHT22;7393;51.446;6.800;2023-03-30T05:23:05;14.40;99.90
14614;DHT22;7393;51.446;6.800;2023-03-30T05:25:32;14.50;99.90
14614;DHT22;7393;51.446;6.800;2023-03-30T05:27:58;14.50;99.90
14614;DHT22;7393;51.446;6.800;2023-03-30T05:30:25;14.40;99.90
14614;DHT22;7393;51.446;6.800;2023-03-30T05:32:53;14.40;99.90
14614;DHT22;7393;51.446;6.800;2023-03-30T05:35:20;14.40;99.90
14614;DHT22;7393;51.446;6.800;2023-03-30T05:37:48;14.40;99.90
14614;DHT22;7393;51.446;6.800;2023-03-30T05:40:16;14.40;99.90
14614;DHT22;7393;51.446;6.800;2023-03-30T05:42:43;14.40;99.90
14614;DHT22;7393;51.446;6.800;2023-03-30T05:45:10;14.40;99.90
14614;DHT22;7393;51.446;6.800;2023-03-30T05:47:37;14.40;99.90
14614;DHT22;7393;51.446;6.800;2023-03-30T05:50:04;14.50;99.90
14614;DHT22;7393;51.446;6.800;2023-03-30T05:52:32;14.50;99.90
14614;DHT22;7393;51.446;6.800;2023-03-30T05:55:00;14.50;99.90
14614;DHT22;7393;51.446;6.800;2023-03-30T05:57:27;14.60;99.90
14614;DHT22;7393;51.446;6.800;2023-03-30T05:59:54;14.50;99.90
14614;DHT22;7393;51.446;6.800;2023-03-30T06:02:20;14.50;99.90
14614;DHT22;7393;51.446;6.800;2023-03-30T06:04:47;14.50;99.90
14614;DHT22;7393;51.446;6.800;2023-03-30T06:07:14;14.50;99.90
14614;DHT22;7393;51.446;6.800;2023-03-30T06:09:42;14.50;99.90
14614;DHT22;7393;51.446;6.800;2023-03-30T06:12:10;14.50;99.90
14614;DHT22;7393;51.446;6.800;2023-03-30T06:14:37;14.60;99.90
14614;DHT22;7393;51.446;6.800;2023-03-30T06:17:03;14.60;99.90
14614;DHT22;7393;51.446;6.800;2023-03-30T06:19:30;14.50;99.90
14614;DHT22;7393;51.446;6.800;2023-03-30T06:21:57;14.50;99.90
14614;DHT22;7393;51.446;6.800;2023-03-30T06:24:24;14.60;99.90
14614;DHT22;7393;51.446;6.800;2023-03-30T06:26:50;14.60;99.90
14614;DHT22;7393;51.446;6.800;2023-03-30T06:29:19;14.50;99.90
14614;DHT22;7393;51.446;6.800;2023-03-30T06:31:45;14.60;99.90
14614;DHT22;7393;51.446;6.800;2023-03-30T06:34:12;14.60;99.90
14614;DHT22;7393;51.446;6.800;2023-03-30T06:36:39;14.60;99.90
14614;DHT22;7393;51.446;6.800;2023-03-30T06:39:06;14.60;99.90
14614;DHT22;7393;51.446;6.800;2023-03-30T06:41:33;14.60;99.90
14614;DHT22;7393;51.446;6.800;2023-03-30T06:44:00;14.70;99.90
14614;DHT22;7393;51.446;6.800;2023-03-30T06:46:28;14.60;99.90
14614;DHT22;7393;51.446;6.800;2023-03-30T06:48:55;14.60;99.90
14614;DHT22;7393;51.446;6.800;2023-03-30T06:51:22;14.60;99.90
14614;DHT22;7393;51.446;6.800;2023-03-30T06:53:49;14.70;99.90
14614;DHT22;7393;51.446;6.800;2023-03-30T06:56:15;14.60;99.90
14614;DHT22;7393;51.446;6.800;2023-03-30T06:58:42;14.70;99.90
14614;DHT22;7393;51.446;6.800;2023-03-30T07:01:10;14.60;99.90
14614;DHT22;7393;51.446;6.800;2023-03-30T07:03:39;14.70;99.90
14614;DHT22;7393;51.446;6.800;2023-03-30T07:06:09;14.70;99.90
14614;DHT22;7393;51.446;6.800;2023-03-30T07:08:37;14.80;99.90
14614;DHT22;7393;51.446;6.800;2023-03-30T07:11:05;14.90;99.90
14614;DHT22;7393;51.446;6.800;2023-03-30T07:13:32;14.90;99.90
14614;DHT22;7393;51.446;6.800;2023-03-30T07:15:59;15.00;99.90
14614;DHT22;7393;51.446;6.800;2023-03-30T07:18:26;14.90;99.90
14614;DHT22;7393;51.446;6.800;2023-03-30T07:20:56;15.00;99.90
14614;DHT22;7393;51.446;6.800;2023-03-30T07:23:23;14.90;99.90
14614;DHT22;7393;51.446;6.800;2023-03-30T07:25:50;15.00;99.90
14614;DHT22;7393;51.446;6.800;2023-03-30T07:28:18;15.00;99.90
14614;DHT22;7393;51.446;6.800;2023-03-30T07:30:45;15.00;99.90
14614;DHT22;7393;51.446;6.800;2023-03-30T07:33:11;15.00;99.90
14614;DHT22;7393;51.446;6.800;2023-03-30T07:35:42;15.00;99.90
14614;DHT22;7393;51.446;6.800;2023-03-30T07:38:11;15.00;99.90
14614;DHT22;7393;51.446;6.800;2023-03-30T07:40:38;15.00;99.90
14614;DHT22;7393;51.446;6.800;2023-03-30T07:43:06;15.00;99.90
14614;DHT22;7393;51.446;6.800;2023-03-30T07:45:33;14.90;99.90
14614;DHT22;7393;51.446;6.800;2023-03-30T07:48:00;14.80;99.90
14614;DHT22;7393;51.446;6.800;2023-03-30T07:50:26;14.80;99.90
14614;DHT22;7393;51.446;6.800;2023-03-30T07:52:53;14.70;99.90
14614;DHT22;7393;51.446;6.800;2023-03-30T07:55:22;14.70;99.90
14614;DHT22;7393;51.446;6.800;2023-03-30T07:57:48;14.70;99.90
14614;DHT22;7393;51.446;6.800;2023-03-30T08:00:16;14.70;99.90
14614;DHT22;7393;51.446;6.800;2023-03-30T08:02:43;14.70;99.90
14614;DHT22;7393;51.446;6.800;2023-03-30T08:05:10;14.70;99.90
14614;DHT22;7393;51.446;6.800;2023-03-30T08:07:37;14.70;99.90
14614;DHT22;7393;51.446;6.800;2023-03-30T08:10:04;14.60;99.90
14614;DHT22;7393;51.446;6.800;2023-03-30T08:12:33;14.60;99.90
14614;DHT22;7393;51.446;6.800;2023-03-30T08:15:00;14.60;99.90
14614;DHT22;7393;51.446;6.800;2023-03-30T08:17:27;14.60;99.90
14614;DHT22;7393;51.446;6.800;2023-03-30T08:19:54;14.60;99.90
14614;DHT22;7393;51.446;6.800;2023-03-30T08:22:22;14.60;99.90
14614;DHT22;7393;51.446;6.800;2023-03-30T08:24:48;14.60;99.90
14614;DHT22;7393;51.446;6.800;2023-03-30T08:27:15;14.70;99.90
14614;DHT22;7393;51.446;6.800;2023-03-30T08:29:43;14.70;99.90
14614;DHT22;7393;51.446;6.800;2023-03-30T08:32:10;14.70;99.90
14614;DHT22;7393;51.446;6.800;2023-03-30T08:34:37;14.70;99.90
14614;DHT22;7393;51.446;6.800;2023-03-30T08:37:04;14.70;99.90
14614;DHT22;7393;51.446;6.800;2023-03-30T08:39:32;14.60;99.90
14614;DHT22;7393;51.446;6.800;2023-03-30T08:42:05;14.70;99.90
14614;DHT22;7393;51.446;6.800;2023-03-30T08:44:38;14.70;99.90
14614;DHT22;7393;51.446;6.800;2023-03-30T08:47:11;14.70;99.90
14614;DHT22;7393;51.446;6.800;2023-03-30T08:49:43;14.80;99.90
14614;DHT22;7393;51.446;6.800;2023-03-30T08:52:22;14.80;99.90
14614;DHT22;7393;51.446;6.800;2023-03-30T08:54:50;15.00;99.90
14614;DHT22;7393;51.446;6.800;2023-03-30T08:57:26;15.00;99.90
14614;DHT22;7393;51.446;6.800;2023-03-30T09:00:06;15.00;99.90
14614;DHT22;7393;51.446;6.800;2023-03-30T09:02:41;15.10;99.90
14614;DHT22;7393;51.446;6.800;2023-03-30T09:05:15;15.20;99.90
14614;DHT22;7393;51.446;6.800;2023-03-30T09:07:46;15.30;99.90
14614;DHT22;7393;51.446;6.800;2023-03-30T09:10:18;15.30;99.90
14614;DHT22;7393;51.446;6.800;2023-03-30T09:12:47;15.40;99.90
14614;DHT22;7393;51.446;6.800;2023-03-30T09:15:18;15.50;99.90
14614;DHT22;7393;51.446;6.800;2023-03-30T09:17:49;15.50;99.90
14614;DHT22;7393;51.446;6.800;2023-03-30T09:20:21;15.60;99.90
14614;DHT22;7393;51.446;6.800;2023-03-30T09:22:49;15.70;99.90
14614;DHT22;7393;51.446;6.800;2023-03-30T09:25:18;15.70;99.90
14614;DHT22;7393;51.446;6.800;2023-03-30T09:27:55;15.70;99.90
14614;DHT22;7393;51.446;6.800;2023-03-30T09:30:30;15.70;99.90
14614;DHT22;7393;51.446;6.800;2023-03-30T09:33:03;15.80;99.90
14614;DHT22;7393;51.446;6.800;2023-03-30T09:35:36;15.70;99.90
14614;DHT22;7393;51.446;6.800;2023-03-30T09:38:04;15.70;99.90
14614;DHT22;7393;51.446;6.800;2023-03-30T09:40:43;15.60;99.90
14614;DHT22;7393;51.446;6.800;2023-03-30T09:43:15;15.60;99.90
14614;DHT22;7393;51.446;6.800;2023-03-30T09:45:45;15.60;99.90
14614;DHT22;7393;51.446;6.800;2023-03-30T09:48:14;15.60;99.90
14614;DHT22;7393;51.446;6.800;2023-03-30T09:50:43;15.50;99.90
14614;DHT22;7393;51.446;6.800;2023-03-30T09:53:18;15.50;99.90
14614;DHT22;7393;51.446;6.800;2023-03-30T09:55:56;15.40;99.90
14614;DHT22;7393;51.446;6.800;2023-03-30T09:58:28;15.40;99.90
14614;DHT22;7393;51.446;6.800;2023-03-30T10:01:05;15.30;99.90
14614;DHT22;7393;51.446;6.800;2023-03-30T10:03:34;15.20;99.90
14614;DHT22;7393;51.446;6.800;2023-03-30T10:06:03;15.10;99.90
14614;DHT22;7393;51.446;6.800;2023-03-30T10:08:32;15.00;99.90
14614;DHT22;7393;51.446;6.800;2023-03-30T10:10:59;15.00;99.90
14614;DHT22;7393;51.446;6.800;2023-03-30T10:13:32;15.00;99.90
14614;DHT22;7393;51.446;6.800;2023-03-30T10:16:04;14.90;99.90
14614;DHT22;7393;51.446;6.800;2023-03-30T10:18:38;14.90;99.90
14614;DHT22;7393;51.446;6.800;2023-03-30T10:21:14;14.90;99.90
14614;DHT22;7393;51.446;6.800;2023-03-30T10:23:44;14.90;99.90
14614;DHT22;7393;51.446;6.800;2023-03-30T10:26:13;14.90;99.90
14614;DHT22;7393;51.446;6.800;2023-03-30T10:28:50;14.90;99.90
14614;DHT22;7393;51.446;6.800;2023-03-30T10:31:18;14.90;99.90
14614;DHT22;7393;51.446;6.800;2023-03-30T10:33:47;15.00;99.90
14614;DHT22;7393;51.446;6.800;2023-03-30T10:36:15;15.10;99.90
14614;DHT22;7393;51.446;6.800;2023-03-30T10:38:44;15.10;99.90
14614;DHT22;7393;51.446;6.800;2023-03-30T10:41:13;15.10;99.90
14614;DHT22;7393;51.446;6.800;2023-03-30T10:43:41;15.10;99.90
14614;DHT22;7393;51.446;6.800;2023-03-30T10:46:11;15.20;99.90
14614;DHT22;7393;51.446;6.800;2023-03-30T10:48:53;15.30;99.90
14614;DHT22;7393;51.446;6.800;2023-03-30T10:51:29;15.30;99.90
14614;DHT22;7393;51.446;6.800;2023-03-30T10:54:04;15.30;99.90
14614;DHT22;7393;51.446;6.800;2023-03-30T10:56:36;15.40;99.90
14614;DHT22;7393;51.446;6.800;2023-03-30T10:59:28;15.50;99.90
14614;DHT22;7393;51.446;6.800;2023-03-30T11:02:20;15.50;99.90
14614;DHT22;7393;51.446;6.800;2023-03-30T11:04:56;15.60;99.90
14614;DHT22;7393;51.446;6.800;2023-03-30T11:07:28;15.70;99.90
14614;DHT22;7393;51.446;6.800;2023-03-30T11:10:01;15.80;99.90
14614;DHT22;7393;51.446;6.800;2023-03-30T11:12:34;15.90;99.90
14614;DHT22;7393;51.446;6.800;2023-03-30T11:15:07;16.00;99.90
14614;DHT22;7393;51.446;6.800;2023-03-30T11:17:41;16.10;99.90
14614;DHT22;7393;51.446;6.800;2023-03-30T11:20:24;16.20;99.90
14614;DHT22;7393;51.446;6.800;2023-03-30T11:22:58;16.20;99.90
14614;DHT22;7393;51.446;6.800;2023-03-30T11:25:29;16.20;99.90
14614;DHT22;7393;51.446;6.800;2023-03-30T11:28:05;16.10;99.90
14614;DHT22;7393;51.446;6.800;2023-03-30T11:30:38;16.10;99.90
14614;DHT22;7393;51.446;6.800;2023-03-30T11:33:11;16.10;99.90
14614;DHT22;7393;51.446;6.800;2023-03-30T11:35:45;16.10;99.90
14614;DHT22;7393;51.446;6.800;2023-03-30T11:38:16;16.20;99.90
14614;DHT22;7393;51.446;6.800;2023-03-30T11:40:45;16.20;99.90
14614;DHT22;7393;51.446;6.800;2023-03-30T11:43:13;16.30;99.90
14614;DHT22;7393;51.446;6.800;2023-03-30T11:45:46;16.40;99.90
14614;DHT22;7393;51.446;6.800;2023-03-30T11:48:35;16.60;99.90
14614;DHT22;7393;51.446;6.800;2023-03-30T11:51:15;16.60;99.90
14614;DHT22;7393;51.446;6.800;2023-03-30T11:53:52;16.60;99.90
14614;DHT22;7393;51.446;6.800;2023-03-30T11:56:27;16.60;99.90
14614;DHT22;7393;51.446;6.800;2023-03-30T11:59:02;16.50;99.90
14614;DHT22;7393;51.446;6.800;2023-03-30T12:01:43;16.50;99.90
14614;DHT22;7393;51.446;6.800;2023-03-30T12:04:13;16.40;99.90
14614;DHT22;7393;51.446;6.800;2023-03-30T12:06:47;16.40;99.90
14614;DHT22;7393;51.446;6.800;2023-03-30T12:09:23;16.40;99.90
14614;DHT22;7393;51.446;6.800;2023-03-30T12:11:54;16.30;99.90
14614;DHT22;7393;51.446;6.800;2023-03-30T12:14:46;16.30;99.90
14614;DHT22;7393;51.446;6.800;2023-03-30T12:17:31;16.30;99.90
14614;DHT22;7393;51.446;6.800;2023-03-30T12:20:05;16.30;99.90
14614;DHT22;7393;51.446;6.800;2023-03-30T12:22:38;16.20;99.90
14614;DHT22;7393;51.446;6.800;2023-03-30T12:25:15;16.20;99.90
14614;DHT22;7393;51.446;6.800;2023-03-30T12:28:09;16.10;99.90
14614;DHT22;7393;51.446;6.800;2023-03-30T12:30:43;15.90;99.90
14614;DHT22;7393;51.446;6.800;2023-03-30T12:33:11;15.80;99.90
14614;DHT22;7393;51.446;6.800;2023-03-30T12:36:00;15.90;99.90
14614;DHT22;7393;51.446;6.800;2023-03-30T12:38:35;15.90;99.90
14614;DHT22;7393;51.446;6.800;2023-03-30T12:41:14;15.90;99.90
14614;DHT22;7393;51.446;6.800;2023-03-30T12:44:13;15.80;99.90
14614;DHT22;7393;51.446;6.800;2023-03-30T12:46:52;15.70;99.90
14614;DHT22;7393;51.446;6.800;2023-03-30T12:49:32;15.60;99.90
14614;DHT22;7393;51.446;6.800;2023-03-30T12:52:06;15.40;99.90
14614;DHT22;7393;51.446;6.800;2023-03-30T12:55:05;15.30;99.90
14614;DHT22;7393;51.446;6.800;2023-03-30T12:57:50;15.20;99.90
14614;DHT22;7393;51.446;6.800;2023-03-30T13:00:31;14.80;99.90
14614;DHT22;7393;51.446;6.800;2023-03-30T13:03:13;14.60;99.90
14614;DHT22;7393;51.446;6.800;2023-03-30T13:05:49;14.40;99.90
14614;DHT22;7393;51.446;6.800;2023-03-30T13:08:20;14.10;99.90
14614;DHT22;7393;51.446;6.800;2023-03-30T13:10:49;14.00;99.90
14614;DHT22;7393;51.446;6.800;2023-03-30T13:13:21;14.00;1.00
14614;DHT22;7393;51.446;6.800;2023-03-30T13:15:50;14.10;1.00
14614;DHT22;7393;51.446;6.800;2023-03-30T13:18:32;14.10;24.50
14614;DHT22;7393;51.446;6.800;2023-03-30T13:21:17;14.30;99.90
14614;DHT22;7393;51.446;6.800;2023-03-30T13:23:58;14.40;99.90
14614;DHT22;7393;51.446;6.800;2023-03-30T13:26:27;14.70;99.90
14614;DHT22;7393;51.446;6.800;2023-03-30T13:29:07;14.80;1.00
14614;DHT22;7393;51.446;6.800;2023-03-30T13:31:46;15.00;1.00
14614;DHT22;7393;51.446;6.800;2023-03-30T13:34:23;15.20;1.00
14614;DHT22;7393;51.446;6.800;2023-03-30T13:36:59;15.20;1.00
14614;DHT22;7393;51.446;6.800;2023-03-30T13:39:34;15.30;1.00
14614;DHT22;7393;51.446;6.800;2023-03-30T13:42:23;15.50;1.00
14614;DHT22;7393;51.446;6.800;2023-03-30T13:44:57;15.60;1.00
14614;DHT22;7393;51.446;6.800;2023-03-30T13:47:38;15.70;99.90
14614;DHT22;7393;51.446;6.800;2023-03-30T13:50:15;15.90;99.90
14614;DHT22;7393;51.446;6.800;2023-03-30T13:52:49;16.10;99.90
14614;DHT22;7393;51.446;6.800;2023-03-30T13:55:19;16.20;99.90
14614;DHT22;7393;51.446;6.800;2023-03-30T13:57:53;16.30;99.90
14614;DHT22;7393;51.446;6.800;2023-03-30T14:00:28;16.50;99.90
14614;DHT22;7393;51.446;6.800;2023-03-30T14:02:58;16.50;99.90
14614;DHT22;7393;51.446;6.800;2023-03-30T14:05:26;16.60;99.90
14614;DHT22;7393;51.446;6.800;2023-03-30T14:07:55;16.70;99.90
14614;DHT22;7393;51.446;6.800;2023-03-30T14:10:23;16.80;99.90
14614;DHT22;7393;51.446;6.800;2023-03-30T14:12:54;16.80;99.90
14614;DHT22;7393;51.446;6.800;2023-03-30T14:15:23;16.90;99.90
14614;DHT22;7393;51.446;6.800;2023-03-30T14:17:53;16.90;99.90
14614;DHT22;7393;51.446;6.800;2023-03-30T14:20:33;16.90;99.90
14614;DHT22;7393;51.446;6.800;2023-03-30T14:23:04;17.00;99.90
14614;DHT22;7393;51.446;6.800;2023-03-30T14:25:34;17.00;99.90
14614;DHT22;7393;51.446;6.800;2023-03-30T14:28:09;17.00;99.90
14614;DHT22;7393;51.446;6.800;2023-03-30T14:30:37;17.00;99.90
14614;DHT22;7393;51.446;6.800;2023-03-30T14:33:06;17.00;99.90
14614;DHT22;7393;51.446;6.800;2023-03-30T14:35:34;17.00;99.90
14614;DHT22;7393;51.446;6.800;2023-03-30T14:38:02;17.00;99.90
14614;DHT22;7393;51.446;6.800;2023-03-30T14:40:29;17.00;99.90
14614;DHT22;7393;51.446;6.800;2023-03-30T14:42:56;17.00;99.90
14614;DHT22;7393;51.446;6.800;2023-03-30T14:45:25;16.90;99.90
14614;DHT22;7393;51.446;6.800;2023-03-30T14:47:52;16.90;99.90
14614;DHT22;7393;51.446;6.800;2023-03-30T14:50:21;16.90;99.90
14614;DHT22;7393;51.446;6.800;2023-03-30T14:52:48;16.90;99.90
14614;DHT22;7393;51.446;6.800;2023-03-30T14:55:19;17.00;99.90
14614;DHT22;7393;51.446;6.800;2023-03-30T14:57:48;17.00;99.90
14614;DHT22;7393;51.446;6.800;2023-03-30T15:00:17;17.10;99.90
14614;DHT22;7393;51.446;6.800;2023-03-30T15:02:49;17.20;99.90
14614;DHT22;7393;51.446;6.800;2023-03-30T15:05:17;17.20;99.90
14614;DHT22;7393;51.446;6.800;2023-03-30T15:07:46;17.10;99.90
14614;DHT22;7393;51.446;6.800;2023-03-30T15:10:21;17.20;99.90
14614;DHT22;7393;51.446;6.800;2023-03-30T15:12:48;17.20;99.90
14614;DHT22;7393;51.446;6.800;2023-03-30T15:15:16;17.10;99.90
14614;DHT22;7393;51.446;6.800;2023-03-30T15:17:49;17.10;99.90
14614;DHT22;7393;51.446;6.800;2023-03-30T15:20:16;17.00;99.90
14614;DHT22;7393;51.446;6.800;2023-03-30T15:22:45;16.90;99.90
14614;DHT22;7393;51.446;6.800;2023-03-30T15:25:14;16.80;99.90
14614;DHT22;7393;51.446;6.800;2023-03-30T15:27:45;16.80;99.90
14614;DHT22;7393;51.446;6.800;2023-03-30T15:30:21;16.70;99.90
14614;DHT22;7393;51.446;6.800;2023-03-30T15:32:55;16.60;99.90
14614;DHT22;7393;51.446;6.800;2023-03-30T15:35:25;16.40;99.90
14614;DHT22;7393;51.446;6.800;2023-03-30T15:37:53;16.20;99.90
14614;DHT22;7393;51.446;6.800;2023-03-30T15:40:29;16.10;99.90
14614;DHT22;7393;51.446;6.800;2023-03-30T15:43:17;15.90;99.90
14614;DHT22;7393;51.446;6.800;2023-03-30T15:45:46;15.80;99.90
14614;DHT22;7393;51.446;6.800;2023-03-30T15:48:16;15.80;99.90
14614;DHT22;7393;51.446;6.800;2023-03-30T15:50:46;15.80;99.90
14614;DHT22;7393;51.446;6.800;2023-03-30T15:53:29;15.90;99.90
14614;DHT22;7393;51.446;6.800;2023-03-30T15:55:58;15.90;99.90
14614;DHT22;7393;51.446;6.800;2023-03-30T15:58:26;15.90;99.90
14614;DHT22;7393;51.446;6.800;2023-03-30T16:00:54;15.90;99.90
14614;DHT22;7393;51.446;6.800;2023-03-30T16:03:34;15.90;99.90
14614;DHT22;7393;51.446;6.800;2023-03-30T16:06:03;15.90;99.90
14614;DHT22;7393;51.446;6.800;2023-03-30T16:08:30;16.00;99.90
14614;DHT22;7393;51.446;6.800;2023-03-30T16:10:57;15.90;99.90
14614;DHT22;7393;51.446;6.800;2023-03-30T16:13:24;15.90;99.90
14614;DHT22;7393;51.446;6.800;2023-03-30T16:15:51;15.90;99.90
14614;DHT22;7393;51.446;6.800;2023-03-30T16:18:18;15.90;99.90
14614;DHT22;7393;51.446;6.800;2023-03-30T16:20:47;15.90;99.90